Time;durP1;ratioP1;P1;durP2;ratioP2;P2;SDS_P1;SDS_P2;PMS_P1;PMS_P2;Temp;Humidity;BMP_temperature;BMP_pressure;BME280_temperature;BME280_humidity;BME280_pressure;Samples;Min_cycle;Max_cycle;Signal;HPM_P1;HPM_P2
2022/02/06 00:01:01;;;;;;;4.90;2.38;;;3.90;99.90;;;;;;5109772;28;20508;-67
2022/02/06 00:03:31;;;;;;;7.25;2.22;;;4.00;99.90;;;;;;5109633;28;20506;-65
2022/02/06 00:06:00;;;;;;;7.75;2.50;;;4.00;99.90;;;;;;5108120;28;20031;-66
2022/02/06 00:08:28;;;;;;;6.82;2.55;;;4.00;99.90;;;;;;5108944;28;20046;-68
2022/02/06 00:10:55;;;;;;;7.00;2.85;;;4.00;99.90;;;;;;5091052;28;20035;-67
2022/02/06 00:13:22;;;;;;;7.22;2.60;;;3.90;99.90;;;;;;5105089;28;20062;-68
2022/02/06 00:15:50;;;;;;;7.57;2.40;;;3.90;99.90;;;;;;5091877;28;20048;-67
2022/02/06 00:18:17;;;;;;;7.70;2.42;;;3.90;99.90;;;;;;5108083;28;20524;-67
2022/02/06 00:21:00;;;;;;;6.80;2.47;;;4.00;99.90;;;;;;5090381;28;20123;-68
2022/02/06 00:23:30;;;;;;;7.30;2.15;;;4.00;99.90;;;;;;5097864;28;20035;-67
2022/02/06 00:26:07;;;;;;;10.07;2.65;;;4.00;99.90;;;;;;5101534;28;20063;-66
2022/02/06 00:28:43;;;;;;;10.52;2.35;;;4.00;99.90;;;;;;5091346;28;20051;-66
2022/02/06 00:39:52;;;;;;;7.68;2.45;;;4.10;99.90;;;;;;5024988;28;20461;-68
2022/02/06 00:42:20;;;;;;;7.85;2.22;;;4.10;99.90;;;;;;5035845;28;20045;-68
2022/02/06 00:44:47;;;;;;;9.20;2.45;;;4.10;99.90;;;;;;5024374;28;20655;-66
2022/02/06 00:47:14;;;;;;;11.02;2.38;;;4.20;99.90;;;;;;5025908;28;20041;-68
2022/02/06 00:49:43;;;;;;;10.65;2.42;;;4.20;99.90;;;;;;5009203;28;20449;-68
2022/02/06 00:52:18;;;;;;;8.35;2.10;;;4.10;99.90;;;;;;5025264;28;20053;-68
2022/02/06 00:54:45;;;;;;;5.55;1.90;;;4.20;99.90;;;;;;5025153;28;20419;-68
2022/02/06 00:57:13;;;;;;;7.25;2.28;;;4.10;99.90;;;;;;5022208;28;20053;-67
2022/02/06 00:59:40;;;;;;;11.00;2.20;;;4.10;99.90;;;;;;5014145;28;20053;-67
2022/02/06 01:02:07;;;;;;;8.65;2.50;;;4.20;99.90;;;;;;5025169;28;20057;-68
2022/02/06 01:04:35;;;;;;;7.72;2.42;;;4.20;99.90;;;;;;5026066;28;20048;-68
2022/02/06 01:07:03;;;;;;;9.18;2.20;;;4.20;99.90;;;;;;5025832;28;20788;-68
2022/02/06 01:09:31;;;;;;;8.82;2.22;;;4.10;99.90;;;;;;5026444;28;20041;-68
2022/02/06 01:11:58;;;;;;;7.47;2.20;;;4.10;99.90;;;;;;5106561;28;20715;-68
2022/02/06 01:17:26;;;;;;;6.53;2.25;;;4.10;99.90;;;;;;5108376;28;20044;-67
2022/02/06 01:22:24;;;;;;;10.88;2.95;;;4.10;99.90;;;;;;5086887;28;20055;-68
2022/02/06 01:25:08;;;;;;;5.55;1.90;;;4.10;99.90;;;;;;5108012;28;20072;-68
2022/02/06 01:30:46;;;;;;;9.15;2.63;;;4.10;99.90;;;;;;5093799;28;20056;-69
2022/02/06 01:33:19;;;;;;;7.50;2.53;;;4.20;99.90;;;;;;5108079;28;20043;-68
2022/02/06 01:36:07;;;;;;;10.23;2.67;;;4.10;99.90;;;;;;5102475;28;20421;-68
2022/02/06 01:39:00;;;;;;;7.97;2.10;;;4.10;99.90;;;;;;5102078;28;20069;-68
2022/02/06 01:41:25;;;;;;;6.65;2.08;;;4.10;99.90;;;;;;5105010;28;20510;-68
2022/02/06 01:44:08;;;;;;;7.80;1.85;;;4.20;99.90;;;;;;5099806;28;20351;-68
2022/02/06 01:57:20;;;;;;;9.20;2.30;;;4.10;99.90;;;;;;5103961;28;20036;-68
2022/02/06 02:03:29;;;;;;;8.48;2.03;;;4.20;99.90;;;;;;5111884;28;20085;-68
2022/02/06 02:14:07;;;;;;;7.15;2.13;;;4.20;99.90;;;;;;5111993;28;20043;-68
2022/02/06 02:45:52;;;;;;;7.63;2.17;;;4.20;99.90;;;;;;5087929;28;20075;-66
2022/02/06 02:48:22;;;;;;;9.05;1.67;;;4.30;99.90;;;;;;5109323;28;20040;-67
2022/02/06 02:50:56;;;;;;;4.03;1.60;;;4.30;99.90;;;;;;5104040;28;20047;-67
2022/02/06 02:53:30;;;;;;;8.63;1.90;;;4.30;99.90;;;;;;5085307;28;20077;-67
2022/02/06 02:56:13;;;;;;;7.57;1.50;;;4.30;99.90;;;;;;5103144;28;20094;-67
2022/02/06 03:01:33;;;;;;;7.72;1.88;;;4.30;99.90;;;;;;5091983;28;20071;-67
2022/02/06 03:04:00;;;;;;;10.13;1.85;;;4.20;99.90;;;;;;5110987;28;20047;-67
2022/02/06 03:06:28;;;;;;;6.50;1.58;;;4.20;99.90;;;;;;5110388;28;20042;-67
2022/02/06 03:08:57;;;;;;;5.85;1.60;;;4.20;99.90;;;;;;5110340;28;20126;-66
2022/02/06 03:11:24;;;;;;;10.85;1.90;;;4.20;99.90;;;;;;5104714;28;20399;-67
2022/02/06 03:14:01;;;;;;;8.63;1.98;;;4.10;99.90;;;;;;5091344;28;20061;-66
2022/02/06 03:16:35;;;;;;;6.43;2.20;;;4.00;99.90;;;;;;5090584;28;20070;-67
2022/02/06 03:21:33;;;;;;;8.45;1.88;;;4.00;99.90;;;;;;5108682;28;20059;-67
2022/02/06 03:24:20;;;;;;;6.28;2.00;;;4.00;99.90;;;;;;5103215;28;20478;-67
2022/02/06 03:26:50;;;;;;;5.03;1.80;;;4.00;99.90;;;;;;5106267;28;20043;-68
2022/02/06 03:29:18;;;;;;;5.35;2.30;;;3.90;99.90;;;;;;5101144;28;20040;-68
2022/02/06 03:31:46;;;;;;;6.40;1.98;;;3.90;99.90;;;;;;5106555;28;20043;-67
2022/02/06 03:34:14;;;;;;;6.05;2.20;;;3.90;99.90;;;;;;5094028;28;20044;-66
2022/02/06 03:36:42;;;;;;;9.48;1.75;;;3.90;99.90;;;;;;5090460;28;20466;-67
2022/02/06 03:39:10;;;;;;;9.88;2.28;;;3.90;99.90;;;;;;5110178;28;20487;-68
2022/02/06 03:41:54;;;;;;;6.80;1.98;;;3.80;99.90;;;;;;5108546;28;20376;-67
2022/02/06 03:44:38;;;;;;;5.55;1.63;;;3.80;99.90;;;;;;5094957;28;20043;-68
2022/02/06 03:47:24;;;;;;;7.07;2.20;;;3.80;99.90;;;;;;5106737;28;20039;-67
2022/02/06 03:50:01;;;;;;;8.10;2.10;;;3.80;99.90;;;;;;5110019;28;20042;-67
2022/02/06 03:52:43;;;;;;;7.15;1.70;;;3.90;99.90;;;;;;5108460;28;20061;-67
2022/02/06 03:55:18;;;;;;;3.67;1.40;;;3.80;99.90;;;;;;5092080;28;20305;-68
2022/02/06 03:57:50;;;;;;;6.95;1.98;;;3.80;99.90;;;;;;5109652;28;20048;-68
2022/02/06 04:00:23;;;;;;;7.65;1.70;;;3.80;99.90;;;;;;5109487;28;20478;-67
2022/02/06 04:02:52;;;;;;;8.02;1.77;;;3.80;99.90;;;;;;5109593;28;20073;-67
2022/02/06 04:05:20;;;;;;;5.32;1.70;;;3.80;99.90;;;;;;5103965;28;20035;-68
2022/02/06 04:07:47;;;;;;;7.18;2.17;;;3.80;99.90;;;;;;5104013;28;20139;-66
2022/02/06 04:10:16;;;;;;;7.85;1.58;;;3.70;99.90;;;;;;5108113;28;20044;-67
2022/02/06 04:12:45;;;;;;;7.72;2.03;;;3.70;99.90;;;;;;5109400;28;20047;-66
2022/02/06 04:15:28;;;;;;;5.13;1.77;;;3.70;99.90;;;;;;5109562;28;20035;-68
2022/02/06 04:18:09;;;;;;;5.82;1.67;;;3.70;99.90;;;;;;5093844;28;20043;-68
2022/02/06 04:20:37;;;;;;;7.20;1.65;;;3.80;99.90;;;;;;5108418;28;20039;-68
2022/02/06 04:23:04;;;;;;;6.07;1.58;;;3.80;99.90;;;;;;5101174;28;20517;-67
2022/02/06 04:25:32;;;;;;;3.30;1.50;;;3.80;99.90;;;;;;5092145;28;20506;-67
2022/02/06 04:27:59;;;;;;;6.85;1.67;;;3.90;99.90;;;;;;5106950;28;20040;-68
2022/02/06 04:30:27;;;;;;;6.13;1.85;;;4.00;99.90;;;;;;5106579;28;20448;-68
2022/02/06 04:32:54;;;;;;;7.68;1.92;;;3.90;99.90;;;;;;5105166;28;20482;-67
2022/02/06 04:35:26;;;;;;;10.98;2.47;;;3.90;99.90;;;;;;5108972;28;20548;-66
2022/02/06 04:38:33;;;;;;;5.13;1.83;;;3.90;99.90;;;;;;5108371;28;20414;-66
2022/02/06 04:41:25;;;;;;;5.28;1.50;;;3.90;99.90;;;;;;5101284;28;20044;-67
2022/02/06 04:44:16;;;;;;;6.57;1.77;;;3.90;99.90;;;;;;5107124;28;20024;-67
2022/02/06 04:50:02;;;;;;;8.88;1.95;;;3.90;99.90;;;;;;5083400;28;20063;-68
2022/02/06 05:11:49;;;;;;;6.10;1.65;;;4.00;99.90;;;;;;5109542;28;20524;-67
2022/02/06 05:14:31;;;;;;;6.95;1.65;;;4.00;99.90;;;;;;5108355;28;20154;-68
2022/02/06 05:22:28;;;;;;;6.45;2.00;;;4.00;99.90;;;;;;5111473;28;20420;-67
2022/02/06 05:30:20;;;;;;;6.88;1.60;;;4.00;99.90;;;;;;5108927;28;20040;-67
2022/02/06 05:35:24;;;;;;;7.68;1.95;;;4.10;99.90;;;;;;5107338;28;19969;-66
2022/02/06 05:37:51;;;;;;;4.10;1.63;;;4.00;99.90;;;;;;5092351;28;20120;-66
2022/02/06 05:40:18;;;;;;;10.07;2.25;;;4.00;99.90;;;;;;5093374;28;20062;-67
2022/02/06 05:42:46;;;;;;;8.98;1.48;;;4.10;99.90;;;;;;5093428;28;20410;-66
2022/02/06 05:45:17;;;;;;;6.15;1.60;;;4.10;99.90;;;;;;5086895;28;20050;-67
2022/02/06 05:47:45;;;;;;;9.18;2.05;;;4.10;99.90;;;;;;5104134;28;20058;-66
2022/02/06 05:50:16;;;;;;;6.38;1.98;;;4.10;99.90;;;;;;5111301;28;20513;-68
2022/02/06 05:52:44;;;;;;;9.73;1.52;;;4.00;99.90;;;;;;5111653;28;20044;-68
2022/02/06 05:55:12;;;;;;;5.90;1.60;;;4.10;99.90;;;;;;5110203;28;20139;-68
2022/02/06 05:57:41;;;;;;;8.73;1.70;;;4.00;99.90;;;;;;5112434;28;20063;-67
2022/02/06 06:00:10;;;;;;;4.38;1.30;;;4.00;99.90;;;;;;5111391;28;20054;-67
2022/02/06 06:02:41;;;;;;;10.80;1.50;;;4.00;99.90;;;;;;5097846;28;20075;-68
2022/02/06 06:05:08;;;;;;;6.88;1.85;;;4.00;99.90;;;;;;5110235;28;20623;-67
2022/02/06 06:07:41;;;;;;;9.43;1.80;;;4.00;99.90;;;;;;5110813;28;20405;-67
2022/02/06 06:10:09;;;;;;;5.85;1.40;;;4.00;99.90;;;;;;5093571;28;20429;-67
2022/02/06 06:12:38;;;;;;;5.78;1.33;;;4.10;99.90;;;;;;5110737;28;20489;-68
2022/02/06 06:15:06;;;;;;;4.90;1.65;;;4.10;99.90;;;;;;5112113;28;20524;-68
2022/02/06 06:17:38;;;;;;;6.97;1.60;;;4.10;99.90;;;;;;5085411;28;20417;-67
2022/02/06 06:20:11;;;;;;;6.43;1.70;;;4.10;99.90;;;;;;5110826;28;20051;-67
2022/02/06 06:22:39;;;;;;;6.13;1.60;;;4.20;99.90;;;;;;5086353;28;20039;-68
2022/02/06 06:25:07;;;;;;;10.65;3.08;;;4.20;99.90;;;;;;5109629;28;20635;-67
2022/02/06 06:27:35;;;;;;;7.70;1.67;;;4.30;99.90;;;;;;5108116;28;20047;-68
2022/02/06 06:30:04;;;;;;;7.18;1.73;;;4.30;99.90;;;;;;5108988;28;20453;-68
2022/02/06 06:32:32;;;;;;;4.72;1.30;;;4.30;99.90;;;;;;5106398;28;20048;-67
2022/02/06 06:35:00;;;;;;;6.75;1.33;;;4.40;99.90;;;;;;5098036;28;20047;-68
2022/02/06 06:37:28;;;;;;;6.68;2.25;;;4.40;99.90;;;;;;5086791;28;20040;-68
2022/02/06 06:39:55;;;;;;;5.47;1.67;;;4.30;99.90;;;;;;5083672;28;20898;-68
2022/02/06 06:42:22;;;;;;;9.63;3.10;;;4.40;99.90;;;;;;5109769;28;20145;-67
2022/02/06 06:44:51;;;;;;;7.38;1.52;;;4.40;99.90;;;;;;5093382;28;20043;-67
2022/02/06 06:47:18;;;;;;;7.05;1.92;;;4.40;99.90;;;;;;5108996;28;20044;-67
2022/02/06 06:49:47;;;;;;;4.75;1.40;;;4.40;99.90;;;;;;5107080;28;20047;-67
2022/02/06 06:52:14;;;;;;;8.48;2.65;;;4.40;99.90;;;;;;5110503;28;20044;-67
2022/02/06 06:54:46;;;;;;;7.88;1.70;;;4.40;99.90;;;;;;5075638;28;20082;-67
2022/02/06 06:57:23;;;;;;;6.07;1.70;;;4.50;99.90;;;;;;5111003;28;20044;-67
2022/02/06 07:04:54;;;;;;;7.18;1.95;;;4.60;99.90;;;;;;5109724;28;20040;-67
2022/02/06 07:07:22;;;;;;;6.28;1.73;;;4.60;99.90;;;;;;5092473;28;20052;-67
2022/02/06 07:09:49;;;;;;;9.07;2.25;;;4.70;99.90;;;;;;5090785;28;20112;-68
2022/02/06 07:12:17;;;;;;;8.95;2.03;;;4.70;99.90;;;;;;5110659;28;20118;-68
2022/02/06 07:14:46;;;;;;;6.05;1.70;;;4.70;99.90;;;;;;5097477;28;20097;-66
2022/02/06 07:17:14;;;;;;;5.35;1.60;;;4.70;99.90;;;;;;5091416;28;20036;-66
2022/02/06 07:19:42;;;;;;;6.38;1.65;;;4.70;99.90;;;;;;5100049;28;20464;-66
2022/02/06 07:22:14;;;;;;;6.60;1.60;;;4.70;99.90;;;;;;5103355;28;20055;-67
2022/02/06 07:24:47;;;;;;;8.20;1.85;;;4.70;99.90;;;;;;5065208;28;20040;-68
2022/02/06 07:27:29;;;;;;;5.55;1.83;;;4.80;99.90;;;;;;5089568;28;20054;-68
2022/02/06 07:30:03;;;;;;;7.60;1.58;;;4.80;99.90;;;;;;5082479;28;20044;-67
2022/02/06 07:32:36;;;;;;;7.55;1.67;;;4.80;99.90;;;;;;5102613;28;20130;-68
2022/02/06 07:35:06;;;;;;;7.63;2.92;;;4.80;99.90;;;;;;5096571;28;20109;-66
2022/02/06 07:37:33;;;;;;;8.68;1.92;;;4.90;99.90;;;;;;5082835;28;20525;-67
2022/02/06 07:40:00;;;;;;;9.15;1.75;;;4.90;99.90;;;;;;5108481;28;20104;-67
2022/02/06 07:42:28;;;;;;;4.20;1.50;;;4.90;99.90;;;;;;5107237;28;20044;-68
2022/02/06 07:45:06;;;;;;;6.90;1.60;;;4.90;99.90;;;;;;5106356;28;20067;-67
2022/02/06 07:47:34;;;;;;;10.98;1.60;;;4.90;99.90;;;;;;5108212;28;20027;-67
2022/02/06 07:50:03;;;;;;;8.05;1.63;;;4.90;99.90;;;;;;5092875;28;20028;-68
2022/02/06 07:52:32;;;;;;;5.70;1.90;;;4.90;99.90;;;;;;5107784;28;20494;-68
2022/02/06 07:55:00;;;;;;;5.65;1.70;;;4.90;99.90;;;;;;5110593;28;20965;-68
2022/02/06 07:57:27;;;;;;;5.28;1.85;;;4.90;99.90;;;;;;5091634;28;20036;-68
2022/02/06 07:59:55;;;;;;;5.40;1.60;;;4.90;99.90;;;;;;5110399;28;20255;-69
2022/02/06 08:02:22;;;;;;;7.22;1.73;;;5.00;99.90;;;;;;5110233;28;20391;-69
2022/02/06 08:04:50;;;;;;;4.90;2.10;;;5.00;99.90;;;;;;5109130;28;20040;-66
2022/02/06 08:07:18;;;;;;;6.15;1.73;;;5.10;99.90;;;;;;5109929;28;20043;-68
2022/02/06 08:09:57;;;;;;;9.40;2.67;;;5.20;99.90;;;;;;5086434;28;20456;-67
2022/02/06 08:12:28;;;;;;;9.82;2.15;;;5.20;99.90;;;;;;5095210;28;20055;-68
2022/02/06 08:14:59;;;;;;;7.38;1.75;;;5.30;99.90;;;;;;5091096;28;20043;-68
2022/02/06 08:17:31;;;;;;;10.98;1.80;;;5.30;99.90;;;;;;5102525;28;20047;-67
2022/02/06 08:20:00;;;;;;;10.20;1.67;;;5.30;99.90;;;;;;5105697;28;20502;-67
2022/02/06 08:22:28;;;;;;;5.88;1.50;;;5.40;99.90;;;;;;5098185;28;20048;-69
2022/02/06 08:24:56;;;;;;;6.47;1.73;;;5.40;99.90;;;;;;5109620;28;20125;-68
2022/02/06 08:27:25;;;;;;;3.70;1.55;;;5.50;99.90;;;;;;5108770;28;20595;-67
2022/02/06 08:29:52;;;;;;;9.00;1.50;;;5.50;99.90;;;;;;5107314;28;20139;-67
2022/02/06 08:32:22;;;;;;;7.25;1.83;;;5.60;99.90;;;;;;5108580;28;20036;-69
2022/02/06 08:34:49;;;;;;;9.95;1.90;;;5.50;99.90;;;;;;5109439;28;20043;-68
2022/02/06 08:37:17;;;;;;;5.22;1.42;;;5.60;99.90;;;;;;5091148;28;20418;-70
2022/02/06 08:39:45;;;;;;;5.32;2.25;;;5.60;99.90;;;;;;5095293;28;20054;-68
2022/02/06 08:42:13;;;;;;;5.82;1.65;;;5.70;99.90;;;;;;5090995;28;20164;-68
2022/02/06 08:44:45;;;;;;;6.28;1.52;;;5.70;99.90;;;;;;5091809;28;20510;-68
2022/02/06 08:47:15;;;;;;;10.32;1.70;;;5.80;99.90;;;;;;5096873;28;20090;-69
2022/02/06 08:49:44;;;;;;;7.57;1.60;;;5.80;99.90;;;;;;5103333;28;20081;-68
2022/02/06 08:52:12;;;;;;;3.70;1.70;;;5.80;99.90;;;;;;5091248;28;20043;-68
2022/02/06 08:54:40;;;;;;;4.57;1.63;;;5.80;99.90;;;;;;5114190;28;20061;-69
2022/02/06 08:57:20;;;;;;;5.22;1.65;;;5.80;99.90;;;;;;5107990;28;20043;-68
2022/02/06 08:59:48;;;;;;;7.18;1.70;;;5.80;99.90;;;;;;5089082;28;20120;-70
2022/02/06 09:02:16;;;;;;;6.45;1.83;;;5.80;99.90;;;;;;5102962;28;20066;-66
2022/02/06 09:04:44;;;;;;;8.57;1.70;;;5.80;99.90;;;;;;5103828;28;20381;-68
2022/02/06 09:07:12;;;;;;;8.93;1.60;;;5.80;99.90;;;;;;5100476;28;20123;-67
2022/02/06 09:09:46;;;;;;;4.60;1.33;;;5.80;99.90;;;;;;5111572;28;20046;-68
2022/02/06 09:12:15;;;;;;;8.00;1.70;;;5.80;99.90;;;;;;5111829;28;20542;-68
2022/02/06 09:14:43;;;;;;;5.47;1.95;;;5.90;99.90;;;;;;5064691;28;20040;-66
2022/02/06 09:17:10;;;;;;;4.78;1.40;;;5.90;99.90;;;;;;5059931;28;20083;-66
2022/02/06 09:19:39;;;;;;;8.88;1.77;;;6.00;99.90;;;;;;5097298;28;20075;-68
2022/02/06 09:22:10;;;;;;;3.90;1.80;;;6.00;99.90;;;;;;5113152;28;20043;-67
2022/02/06 09:24:37;;;;;;;6.65;1.90;;;6.10;99.90;;;;;;5106916;28;20040;-67
2022/02/06 09:27:06;;;;;;;5.57;1.42;;;6.20;99.90;;;;;;5103740;28;20038;-69
2022/02/06 09:29:35;;;;;;;3.95;1.58;;;6.30;99.90;;;;;;5104845;28;20506;-69
2022/02/06 09:37:24;;;;;;;5.95;1.75;;;6.40;99.90;;;;;;5101982;28;20047;-68
2022/02/06 09:39:52;;;;;;;5.53;1.42;;;6.40;99.90;;;;;;5110831;28;20047;-68
2022/02/06 09:42:20;;;;;;;4.78;1.38;;;6.40;99.90;;;;;;5096285;28;20107;-68
2022/02/06 09:44:49;;;;;;;6.07;1.40;;;6.30;99.90;;;;;;5103950;28;20539;-69
2022/02/06 09:47:28;;;;;;;5.35;1.50;;;6.40;99.90;;;;;;5094415;28;20081;-66
2022/02/06 09:49:56;;;;;;;5.88;1.48;;;6.30;99.90;;;;;;5092307;28;20042;-67
2022/02/06 09:52:28;;;;;;;9.98;1.88;;;6.30;99.90;;;;;;5100214;28;20044;-70
2022/02/06 09:55:04;;;;;;;8.02;1.50;;;6.20;99.90;;;;;;5110384;28;20062;-70
2022/02/06 09:57:41;;;;;;;5.13;1.50;;;6.30;99.90;;;;;;5099436;28;20044;-68
2022/02/06 10:00:09;;;;;;;7.40;1.52;;;6.40;99.90;;;;;;5105627;28;20066;-69
2022/02/06 10:02:38;;;;;;;8.48;1.65;;;6.40;99.90;;;;;;5108548;28;20139;-68
2022/02/06 10:05:07;;;;;;;6.30;1.67;;;6.40;99.90;;;;;;5102545;28;20374;-67
2022/02/06 10:07:44;;;;;;;6.63;1.77;;;6.40;99.90;;;;;;5111305;28;20403;-67
2022/02/06 10:10:13;;;;;;;6.03;1.67;;;6.50;99.90;;;;;;5094494;28;20054;-69
2022/02/06 10:12:43;;;;;;;6.90;1.77;;;6.70;99.90;;;;;;5098015;28;20047;-69
2022/02/06 10:15:13;;;;;;;5.75;1.52;;;6.70;99.90;;;;;;5111299;28;20048;-68
2022/02/06 10:17:41;;;;;;;4.57;1.35;;;6.70;99.90;;;;;;5093483;28;20578;-68
2022/02/06 10:20:19;;;;;;;4.07;1.60;;;6.80;99.90;;;;;;5102935;28;20403;-69
2022/02/06 10:25:18;;;;;;;8.00;1.90;;;6.90;99.90;;;;;;5112093;28;20040;-66
2022/02/06 10:28:10;;;;;;;10.23;1.60;;;7.00;99.90;;;;;;5089431;28;20040;-68
2022/02/06 10:30:42;;;;;;;8.18;1.83;;;7.00;99.90;;;;;;5110243;28;20535;-66
2022/02/06 10:33:18;;;;;;;6.53;1.50;;;7.00;99.90;;;;;;5109791;28;20205;-68
2022/02/06 10:35:48;;;;;;;4.38;1.50;;;6.90;99.90;;;;;;5104640;28;20140;-67
2022/02/06 10:38:18;;;;;;;5.22;1.23;;;7.00;99.90;;;;;;5091496;28;20047;-69
2022/02/06 10:41:12;;;;;;;5.25;1.25;;;6.90;99.90;;;;;;5111149;28;20044;-68
2022/02/06 10:44:01;;;;;;;3.65;1.48;;;6.80;99.90;;;;;;5102814;28;20138;-68
2022/02/06 10:46:30;;;;;;;3.50;1.52;;;6.90;99.90;;;;;;5107384;28;20036;-68
2022/02/06 10:49:01;;;;;;;5.50;1.58;;;6.90;99.90;;;;;;5092029;28;20105;-68
2022/02/06 10:51:36;;;;;;;3.70;1.10;;;6.90;99.90;;;;;;5105789;28;20088;-69
2022/02/06 10:54:05;;;;;;;7.18;1.63;;;6.90;99.90;;;;;;5093500;28;20039;-68
2022/02/06 10:56:34;;;;;;;4.43;1.70;;;6.90;99.90;;;;;;5111029;28;20429;-66
2022/02/06 10:59:04;;;;;;;4.18;1.30;;;6.90;99.90;;;;;;5097532;28;20039;-68
2022/02/06 11:01:32;;;;;;;3.78;1.17;;;6.90;99.90;;;;;;5111870;28;20054;-67
2022/02/06 11:04:18;;;;;;;5.78;1.50;;;6.90;99.90;;;;;;5112214;28;20079;-67
2022/02/06 11:06:53;;;;;;;7.07;2.00;;;7.00;99.90;;;;;;5111913;28;20043;-69
2022/02/06 11:09:28;;;;;;;7.25;1.77;;;7.10;99.90;;;;;;5106783;28;20525;-69
2022/02/06 11:11:58;;;;;;;4.97;1.58;;;7.10;99.90;;;;;;5104349;28;20051;-67
2022/02/06 11:14:27;;;;;;;9.88;1.60;;;7.10;99.90;;;;;;5092731;28;20040;-68
2022/02/06 11:16:56;;;;;;;9.18;2.28;;;7.10;99.90;;;;;;5110705;28;20070;-68
2022/02/06 11:19:23;;;;;;;;;;;7.10;99.90;;;;;;5090028;28;20487;-68
2022/02/06 11:22:10;;;;;;;7.03;1.63;;;7.10;99.90;;;;;;5109956;28;20017;-68
2022/02/06 11:24:44;;;;;;;4.13;1.40;;;7.10;99.90;;;;;;5111677;28;20506;-67
2022/02/06 11:27:12;;;;;;;5.30;1.67;;;7.10;99.90;;;;;;5104048;28;20483;-67
2022/02/06 11:29:40;;;;;;;4.15;1.48;;;7.10;99.90;;;;;;5080163;28;20119;-68
2022/02/06 11:32:08;;;;;;;4.30;1.17;;;7.10;99.90;;;;;;5110289;28;20040;-67
2022/02/06 11:34:41;;;;;;;9.07;1.73;;;7.10;99.90;;;;;;5106718;28;20043;-67
2022/02/06 11:46:20;;;;;;;5.22;1.40;;;7.10;99.90;;;;;;5110520;28;20510;-66
2022/02/06 11:48:50;;;;;;;5.03;1.48;;;7.10;99.90;;;;;;5110410;28;20527;-68
2022/02/06 11:51:18;;;;;;;6.05;1.30;;;7.10;99.90;;;;;;5092969;28;20799;-69
2022/02/06 11:53:46;;;;;;;5.32;1.67;;;7.20;99.90;;;;;;5107060;28;20063;-68
2022/02/06 11:56:34;;;;;;;3.10;1.38;;;7.20;99.90;;;;;;5084473;28;20489;-67
2022/02/06 11:59:15;;;;;;;5.85;1.65;;;7.10;99.90;;;;;;5109708;28;20035;-68
2022/02/06 12:01:43;;;;;;;6.03;1.50;;;7.20;99.90;;;;;;5107529;28;20062;-67
2022/02/06 12:04:23;;;;;;;6.28;1.20;;;7.20;99.90;;;;;;5109089;28;20040;-67
2022/02/06 12:06:54;;;;;;;4.93;1.48;;;7.30;99.90;;;;;;5097990;28;20047;-69
2022/02/06 12:09:28;;;;;;;4.30;1.60;;;7.40;99.90;;;;;;5108424;28;20520;-70
2022/02/06 12:12:04;;;;;;;4.47;1.23;;;7.40;99.90;;;;;;5083960;28;20051;-69
2022/02/06 12:14:38;;;;;;;6.55;1.30;;;7.30;99.90;;;;;;5096554;28;20039;-69
2022/02/06 12:20:08;;;;;;;3.58;1.25;;;7.30;99.90;;;;;;5108363;28;20470;-66
2022/02/06 12:22:39;;;;;;;2.22;1.05;;;7.30;99.90;;;;;;5107497;28;20089;-69
2022/02/06 12:25:34;;;;;;;4.13;1.30;;;7.40;99.90;;;;;;5104371;28;20036;-68
2022/02/06 12:28:11;;;;;;;3.20;1.17;;;7.40;99.90;;;;;;5077818;28;20127;-68
2022/02/06 12:30:41;;;;;;;4.47;1.40;;;7.40;99.90;;;;;;5100778;28;20047;-68
2022/02/06 12:33:22;;;;;;;4.07;1.48;;;7.40;99.90;;;;;;5101442;28;20533;-69
2022/02/06 12:38:35;;;;;;;3.35;1.30;;;7.40;99.90;;;;;;5096579;28;20485;-68
2022/02/06 12:41:27;;;;;;;3.50;1.13;;;7.40;99.90;;;;;;5090448;28;20054;-67
2022/02/06 12:44:03;;;;;;;6.07;1.23;;;7.50;99.90;;;;;;5098347;28;20456;-69
2022/02/06 12:46:32;;;;;;;3.63;1.60;;;7.50;99.90;;;;;;5108876;28;20044;-68
2022/02/06 12:49:02;;;;;;;3.78;1.38;;;7.40;99.90;;;;;;5107671;28;20097;-68
2022/02/06 12:51:35;;;;;;;4.22;1.38;;;7.40;99.90;;;;;;5090700;28;20039;-69
2022/02/06 12:54:10;;;;;;;5.45;1.45;;;7.40;99.90;;;;;;5103944;28;20416;-67
2022/02/06 12:56:42;;;;;;;3.80;1.48;;;7.40;99.90;;;;;;5088765;28;20075;-67
2022/02/06 12:59:16;;;;;;;6.40;2.22;;;7.40;99.90;;;;;;5094372;28;20522;-68
2022/02/06 13:01:47;;;;;;;3.25;1.25;;;7.40;99.90;;;;;;5089804;28;20043;-69
2022/02/06 13:04:22;;;;;;;3.15;1.02;;;7.40;99.90;;;;;;5108522;28;20116;-69
2022/02/06 13:06:52;;;;;;;4.32;1.33;;;7.30;99.90;;;;;;5107734;28;20058;-68
2022/02/06 13:09:21;;;;;;;5.93;1.65;;;7.30;99.90;;;;;;5069742;28;20044;-70
2022/02/06 13:11:58;;;;;;;4.82;1.40;;;7.30;99.90;;;;;;5099512;28;20044;-68
2022/02/06 13:25:52;;;;;;;3.47;1.42;;;7.10;99.90;;;;;;5108357;28;20032;-69
2022/02/06 13:38:51;;;;;;;5.05;1.20;;;7.10;99.90;;;;;;5096431;28;20047;-68
2022/02/06 13:41:23;;;;;;;5.45;1.50;;;7.00;99.90;;;;;;5109643;28;20138;-69
2022/02/06 13:43:51;;;;;;;3.25;1.10;;;7.00;99.90;;;;;;5111001;28;20116;-66
2022/02/06 13:46:26;;;;;;;2.60;1.30;;;7.00;99.90;;;;;;5104307;28;20043;-69
2022/02/06 13:48:55;;;;;;;5.75;1.05;;;6.90;99.90;;;;;;5093764;28;20418;-67
2022/02/06 13:51:27;;;;;;;4.28;1.27;;;6.90;99.90;;;;;;5111953;28;20158;-68
2022/02/06 13:54:05;;;;;;;3.15;1.10;;;6.80;99.90;;;;;;5109587;28;20048;-68
2022/02/06 13:56:35;;;;;;;6.05;1.40;;;6.80;99.90;;;;;;5103714;28;20536;-69
2022/02/06 13:59:19;;;;;;;4.35;1.60;;;6.70;99.90;;;;;;5110269;28;20536;-70
2022/02/06 14:01:51;;;;;;;;;;;6.70;99.90;;;;;;5112385;28;20269;-69
2022/02/06 14:04:25;;;;;;;5.63;1.25;;;6.70;99.90;;;;;;5110748;28;19944;-70
2022/02/06 14:07:23;;;;;;;5.55;1.38;;;6.60;99.90;;;;;;5111217;28;20050;-69
2022/02/06 14:10:10;;;;;;;3.83;1.17;;;6.60;99.90;;;;;;5111824;28;20040;-68
2022/02/06 14:12:49;;;;;;;3.55;1.30;;;6.60;99.90;;;;;;5083350;28;20093;-68
2022/02/06 14:15:29;;;;;;;4.63;1.02;;;6.50;99.90;;;;;;5102199;28;20054;-68
2022/02/06 14:18:06;;;;;;;3.83;1.17;;;6.50;99.90;;;;;;5109949;28;20048;-67
2022/02/06 14:20:33;;;;;;;5.40;1.48;;;6.50;99.90;;;;;;5092048;28;20069;-69
2022/02/06 14:23:04;;;;;;;3.58;1.20;;;6.50;99.90;;;;;;5091790;28;20036;-68
2022/02/06 14:25:36;;;;;;;3.55;1.50;;;6.50;99.90;;;;;;5109885;28;20478;-68
2022/02/06 14:28:26;;;;;;;7.88;1.42;;;6.40;99.90;;;;;;5101699;28;20051;-68
2022/02/06 14:30:54;;;;;;;5.68;1.38;;;6.40;99.90;;;;;;5109891;28;20058;-68
2022/02/06 14:33:27;;;;;;;3.28;1.20;;;6.40;99.90;;;;;;5108549;28;20570;-68
2022/02/06 14:35:57;;;;;;;2.40;1.10;;;6.40;99.90;;;;;;5105099;28;20046;-68
2022/02/06 14:38:43;;;;;;;2.47;1.10;;;6.40;99.90;;;;;;5100097;28;20047;-66
2022/02/06 14:41:23;;;;;;;2.53;1.10;;;6.50;99.90;;;;;;5109096;28;20987;-68
2022/02/06 14:43:59;;;;;;;1.80;0.90;;;6.40;99.90;;;;;;5090342;28;20366;-67
2022/02/06 14:46:29;;;;;;;1.95;1.00;;;6.40;99.90;;;;;;5109479;28;20040;-67
2022/02/06 14:48:57;;;;;;;2.60;1.23;;;6.40;99.90;;;;;;5092068;28;20127;-67
2022/02/06 14:51:27;;;;;;;2.83;0.80;;;6.40;99.90;;;;;;5088744;28;20154;-68
2022/02/06 14:54:02;;;;;;;4.85;1.10;;;6.40;99.90;;;;;;5110506;28;20059;-69
2022/02/06 14:56:30;;;;;;;4.85;1.52;;;6.40;99.90;;;;;;5110470;28;20047;-67
2022/02/06 14:58:59;;;;;;;3.00;1.15;;;6.40;99.90;;;;;;5109419;28;20474;-67
2022/02/06 15:01:27;;;;;;;1.88;0.90;;;6.40;99.90;;;;;;5101142;28;20044;-68
2022/02/06 15:03:54;;;;;;;3.55;1.10;;;6.40;99.90;;;;;;5105502;28;20058;-68
2022/02/06 15:06:21;;;;;;;3.50;1.08;;;6.40;99.90;;;;;;5086415;28;20051;-67
2022/02/06 15:08:50;;;;;;;3.08;1.00;;;6.30;99.90;;;;;;5096321;28;20410;-69
2022/02/06 15:11:17;;;;;;;2.45;1.08;;;6.30;99.90;;;;;;5101716;28;20104;-67
2022/02/06 15:13:44;;;;;;;1.23;0.80;;;6.30;99.90;;;;;;5084527;28;20043;-69
2022/02/06 15:16:17;;;;;;;2.15;1.10;;;6.30;99.90;;;;;;5103951;28;20524;-70
2022/02/06 15:18:54;;;;;;;2.30;1.00;;;6.20;99.90;;;;;;5099983;28;20040;-69
2022/02/06 15:21:21;;;;;;;2.60;1.05;;;6.20;99.90;;;;;;5110204;28;20043;-67
2022/02/06 15:23:49;;;;;;;2.47;0.80;;;6.20;99.90;;;;;;5109119;28;20048;-68
2022/02/06 15:26:16;;;;;;;1.13;0.60;;;6.10;99.90;;;;;;5089858;28;20063;-67
2022/02/06 15:28:45;;;;;;;1.85;0.80;;;6.10;99.90;;;;;;5109822;28;20549;-70
2022/02/06 15:31:13;;;;;;;2.72;0.80;;;6.00;99.90;;;;;;5099761;28;20584;-69
2022/02/06 15:33:40;;;;;;;2.13;0.77;;;6.00;99.90;;;;;;5103184;28;20035;-69
2022/02/06 15:36:08;;;;;;;2.75;0.90;;;6.00;99.90;;;;;;5088827;28;20565;-68
2022/02/06 15:38:37;;;;;;;4.70;1.83;;;6.10;99.90;;;;;;5108332;28;20036;-67
2022/02/06 15:41:05;;;;;;;2.47;0.90;;;6.00;99.90;;;;;;5108196;28;20058;-68
2022/02/06 15:43:32;;;;;;;3.75;1.50;;;6.00;99.90;;;;;;5108657;28;20044;-69
2022/02/06 15:46:02;;;;;;;5.07;1.10;;;5.90;99.90;;;;;;5110162;28;20496;-68
2022/02/06 15:48:29;;;;;;;2.83;0.90;;;5.90;99.90;;;;;;5088906;28;20406;-69
2022/02/06 15:50:56;;;;;;;1.95;0.80;;;5.90;99.90;;;;;;5085383;28;20545;-69
2022/02/06 15:53:24;;;;;;;2.30;0.82;;;6.00;99.90;;;;;;5101912;28;20066;-66
2022/02/06 15:55:51;;;;;;;3.45;1.80;;;6.00;99.90;;;;;;5098239;28;20044;-69
2022/02/06 15:58:18;;;;;;;2.17;0.85;;;6.10;99.90;;;;;;5101787;28;20627;-67
2022/02/06 16:00:46;;;;;;;1.52;0.80;;;6.10;99.90;;;;;;5109738;28;20055;-68